sensor_id;sensor_type;location;lat;lon;timestamp;pressure;altitude;pressure_sealevel;temperature;humidity
25610;BME280;13479;49.044;8.716;2023-04-07T04:02:22;98864.75;;;8.46;73.39
25610;BME280;13479;49.044;8.716;2023-04-07T04:04:48;98845.75;;;8.41;73.47
25610;BME280;13479;49.044;8.716;2023-04-07T04:07:13;98835.31;;;8.50;73.08
25610;BME280;13479;49.044;8.716;2023-04-07T04:09:39;98851.34;;;8.49;73.41
25610;BME280;13479;49.044;8.716;2023-04-07T04:12:04;98864.28;;;8.63;72.78
25610;BME280;13479;49.044;8.716;2023-04-07T04:14:29;98862.38;;;8.54;72.67
25610;BME280;13479;49.044;8.716;2023-04-07T04:16:55;98822.56;;;8.44;73.96
25610;BME280;13479;49.044;8.716;2023-04-07T04:19:20;98792.63;;;8.44;74.13
25610;BME280;13479;49.044;8.716;2023-04-07T04:21:45;98792.19;;;8.27;74.78
25610;BME280;13479;49.044;8.716;2023-04-07T04:24:11;98793.16;;;8.26;75.43
25610;BME280;13479;49.044;8.716;2023-04-07T04:26:36;98793.75;;;8.18;75.37
25610;BME280;13479;49.044;8.716;2023-04-07T04:29:01;98809.13;;;8.25;75.58
25610;BME280;13479;49.044;8.716;2023-04-07T04:31:27;98824.16;;;8.24;75.63
25610;BME280;13479;49.044;8.716;2023-04-07T04:33:52;98843.88;;;8.20;75.31
25610;BME280;13479;49.044;8.716;2023-04-07T04:36:18;98849.16;;;8.09;75.53
25610;BME280;13479;49.044;8.716;2023-04-07T04:38:43;98842.56;;;8.03;75.40
25610;BME280;13479;49.044;8.716;2023-04-07T04:41:08;98861.19;;;8.13;74.79
25610;BME280;13479;49.044;8.716;2023-04-07T04:43:34;98903.72;;;8.21;73.88
25610;BME280;13479;49.044;8.716;2023-04-07T04:45:59;98912.59;;;7.97;74.22
25610;BME280;13479;49.044;8.716;2023-04-07T04:48:24;98896.84;;;7.73;74.65
25610;BME280;13479;49.044;8.716;2023-04-07T04:50:50;98873.84;;;7.51;75.29
25610;BME280;13479;49.044;8.716;2023-04-07T04:53:15;98847.91;;;7.45;75.44
25610;BME280;13479;49.044;8.716;2023-04-07T04:55:40;98824.59;;;7.38;75.64
25610;BME280;13479;49.044;8.716;2023-04-07T04:58:10;98821.88;;;7.51;75.54
25610;BME280;13479;49.044;8.716;2023-04-07T05:00:36;98825.22;;;7.42;76.46
25610;BME280;13479;49.044;8.716;2023-04-07T05:03:01;98829.41;;;7.33;76.66
25610;BME280;13479;49.044;8.716;2023-04-07T05:05:27;98841.25;;;7.28;76.93
25610;BME280;13479;49.044;8.716;2023-04-07T05:07:52;98847.91;;;7.45;77.40
25610;BME280;13479;49.044;8.716;2023-04-07T05:10:18;98870.16;;;7.65;77.58
25610;BME280;13479;49.044;8.716;2023-04-07T05:12:43;98915.72;;;7.80;76.94
25610;BME280;13479;49.044;8.716;2023-04-07T05:15:09;98921.22;;;7.77;76.53
25610;BME280;13479;49.044;8.716;2023-04-07T05:17:34;98913.69;;;7.83;76.65
25610;BME280;13479;49.044;8.716;2023-04-07T05:20:00;98911.88;;;7.84;77.15
25610;BME280;13479;49.044;8.716;2023-04-07T05:22:25;98897.69;;;7.85;76.92
25610;BME280;13479;49.044;8.716;2023-04-07T05:24:50;98889.53;;;7.77;77.51
25610;BME280;13479;49.044;8.716;2023-04-07T05:27:15;98891.69;;;7.83;77.21
25610;BME280;13479;49.044;8.716;2023-04-07T05:29:41;98919.34;;;7.90;76.79
25610;BME280;13479;49.044;8.716;2023-04-07T05:32:06;98928.44;;;7.75;76.89
25610;BME280;13479;49.044;8.716;2023-04-07T05:34:31;98904.63;;;7.63;77.75
25610;BME280;13479;49.044;8.716;2023-04-07T05:36:57;98886.97;;;7.64;77.81
25610;BME280;13479;49.044;8.716;2023-04-07T05:39:22;98885.19;;;7.76;78.38
25610;BME280;13479;49.044;8.716;2023-04-07T05:41:47;98908.75;;;7.90;78.02
25610;BME280;13479;49.044;8.716;2023-04-07T05:44:12;98919.34;;;8.01;78.11
25610;BME280;13479;49.044;8.716;2023-04-07T05:46:38;98936.19;;;8.12;78.26
25610;BME280;13479;49.044;8.716;2023-04-07T05:49:03;98955.53;;;8.24;77.74
25610;BME280;13479;49.044;8.716;2023-04-07T05:51:28;98967.94;;;8.23;77.56
25610;BME280;13479;49.044;8.716;2023-04-07T05:53:54;98957.38;;;8.34;77.48
25610;BME280;13479;49.044;8.716;2023-04-07T05:56:19;98967.00;;;8.47;77.37
25610;BME280;13479;49.044;8.716;2023-04-07T05:58:45;98974.69;;;8.61;77.30
25610;BME280;13479;49.044;8.716;2023-04-07T06:01:11;98984.31;;;8.74;77.13
25610;BME280;13479;49.044;8.716;2023-04-07T06:03:36;98996.56;;;8.98;75.94
25610;BME280;13479;49.044;8.716;2023-04-07T06:06:01;99054.56;;;9.12;73.55
25610;BME280;13479;49.044;8.716;2023-04-07T06:08:27;99017.28;;;9.04;73.90
25610;BME280;13479;49.044;8.716;2023-04-07T06:10:52;98979.59;;;9.11;74.20
25610;BME280;13479;49.044;8.716;2023-04-07T06:13:17;98949.34;;;9.14;74.69
25610;BME280;13479;49.044;8.716;2023-04-07T06:15:43;98961.91;;;9.45;73.82
25610;BME280;13479;49.044;8.716;2023-04-07T06:18:08;99062.84;;;9.74;70.12
25610;BME280;13479;49.044;8.716;2023-04-07T06:20:33;99049.53;;;9.85;69.36
25610;BME280;13479;49.044;8.716;2023-04-07T06:22:59;99017.22;;;9.92;68.96
25610;BME280;13479;49.044;8.716;2023-04-07T06:25:25;99001.50;;;10.00;67.60
25610;BME280;13479;49.044;8.716;2023-04-07T06:27:50;98970.72;;;10.09;67.50
25610;BME280;13479;49.044;8.716;2023-04-07T06:30:15;98967.06;;;10.31;66.73
25610;BME280;13479;49.044;8.716;2023-04-07T06:32:41;98989.13;;;11.54;63.44
25610;BME280;13479;49.044;8.716;2023-04-07T06:35:06;98941.25;;;12.69;60.71
25610;BME280;13479;49.044;8.716;2023-04-07T06:37:32;98908.38;;;13.24;58.31
25610;BME280;13479;49.044;8.716;2023-04-07T06:39:57;98873.94;;;13.49;57.84
25610;BME280;13479;49.044;8.716;2023-04-07T06:42:22;98868.88;;;13.64;56.28
25610;BME280;13479;49.044;8.716;2023-04-07T06:44:48;98863.84;;;13.61;56.12
25610;BME280;13479;49.044;8.716;2023-04-07T06:47:13;98852.16;;;13.35;55.81
25610;BME280;13479;49.044;8.716;2023-04-07T06:49:38;98831.91;;;13.06;57.02
25610;BME280;13479;49.044;8.716;2023-04-07T06:52:04;98825.66;;;12.79;56.73
25610;BME280;13479;49.044;8.716;2023-04-07T06:54:29;98788.28;;;12.53;58.22
25610;BME280;13479;49.044;8.716;2023-04-07T06:56:55;98804.97;;;12.55;56.87
25610;BME280;13479;49.044;8.716;2023-04-07T06:59:21;98787.75;;;12.67;57.95
25610;BME280;13479;49.044;8.716;2023-04-07T07:01:46;98786.41;;;13.00;57.31
25610;BME280;13479;49.044;8.716;2023-04-07T07:04:13;98828.78;;;13.11;56.91
25610;BME280;13479;49.044;8.716;2023-04-07T07:06:38;98865.06;;;13.66;54.34
25610;BME280;13479;49.044;8.716;2023-04-07T07:09:03;98842.03;;;14.18;54.50
25610;BME280;13479;49.044;8.716;2023-04-07T07:11:29;98877.09;;;16.31;50.83
25610;BME280;13479;49.044;8.716;2023-04-07T07:13:54;98869.63;;;18.43;45.72
25610;BME280;13479;49.044;8.716;2023-04-07T07:16:20;98882.81;;;20.81;42.18
25610;BME280;13479;49.044;8.716;2023-04-07T07:18:48;98905.94;;;22.97;37.90
25610;BME280;13479;49.044;8.716;2023-04-07T07:21:13;98929.78;;;24.73;33.02
25610;BME280;13479;49.044;8.716;2023-04-07T07:23:38;98942.06;;;26.45;29.99
25610;BME280;13479;49.044;8.716;2023-04-07T07:26:04;98963.59;;;28.03;26.80
25610;BME280;13479;49.044;8.716;2023-04-07T07:28:29;98960.44;;;29.12;24.78
25610;BME280;13479;49.044;8.716;2023-04-07T07:30:55;98956.22;;;29.81;24.22
25610;BME280;13479;49.044;8.716;2023-04-07T07:33:20;98954.88;;;30.59;23.47
25610;BME280;13479;49.044;8.716;2023-04-07T07:35:47;98955.75;;;32.01;21.63
25610;BME280;13479;49.044;8.716;2023-04-07T07:38:12;98954.94;;;32.11;20.91
25610;BME280;13479;49.044;8.716;2023-04-07T07:40:37;98951.81;;;32.59;20.39
25610;BME280;13479;49.044;8.716;2023-04-07T07:43:03;98943.84;;;33.23;20.68
25610;BME280;13479;49.044;8.716;2023-04-07T07:45:28;98952.81;;;33.79;19.30
25610;BME280;13479;49.044;8.716;2023-04-07T07:47:53;98946.09;;;33.95;18.84
25610;BME280;13479;49.044;8.716;2023-04-07T07:50:19;98950.06;;;34.13;18.75
25610;BME280;13479;49.044;8.716;2023-04-07T07:52:44;98949.53;;;34.11;19.04
25610;BME280;13479;49.044;8.716;2023-04-07T07:55:10;98953.88;;;34.17;19.19
25610;BME280;13479;49.044;8.716;2023-04-07T07:57:35;98945.56;;;34.23;18.79
25610;BME280;13479;49.044;8.716;2023-04-07T08:00:01;98956.16;;;34.88;18.49
25610;BME280;13479;49.044;8.716;2023-04-07T08:02:27;98956.56;;;35.20;17.83
25610;BME280;13479;49.044;8.716;2023-04-07T08:04:56;98959.50;;;34.61;18.43
25610;BME280;13479;49.044;8.716;2023-04-07T08:07:22;98961.13;;;33.73;19.31
25610;BME280;13479;49.044;8.716;2023-04-07T08:09:47;98952.81;;;34.13;18.43
25610;BME280;13479;49.044;8.716;2023-04-07T08:12:14;98958.03;;;34.44;18.31
25610;BME280;13479;49.044;8.716;2023-04-07T08:14:39;98963.06;;;34.61;18.14
25610;BME280;13479;49.044;8.716;2023-04-07T08:17:04;98961.47;;;33.62;18.87
25610;BME280;13479;49.044;8.716;2023-04-07T08:19:30;98956.66;;;33.43;19.37
25610;BME280;13479;49.044;8.716;2023-04-07T08:21:55;98964.25;;;32.20;19.98
25610;BME280;13479;49.044;8.716;2023-04-07T08:24:21;98953.28;;;32.30;20.72
25610;BME280;13479;49.044;8.716;2023-04-07T08:26:46;98945.31;;;33.05;20.11
25610;BME280;13479;49.044;8.716;2023-04-07T08:29:11;98941.16;;;33.57;19.88
25610;BME280;13479;49.044;8.716;2023-04-07T08:31:37;98945.56;;;34.23;18.74
25610;BME280;13479;49.044;8.716;2023-04-07T08:34:02;98946.97;;;34.20;18.29
25610;BME280;13479;49.044;8.716;2023-04-07T08:36:27;98950.94;;;33.74;18.88
25610;BME280;13479;49.044;8.716;2023-04-07T08:38:54;98961.47;;;34.01;18.57
25610;BME280;13479;49.044;8.716;2023-04-07T08:41:36;98961.44;;;34.31;18.16
25610;BME280;13479;49.044;8.716;2023-04-07T08:44:02;98965.75;;;34.91;18.18
25610;BME280;13479;49.044;8.716;2023-04-07T08:46:28;98968.13;;;35.22;17.61
25610;BME280;13479;49.044;8.716;2023-04-07T08:48:55;98970.13;;;35.74;17.25
25610;BME280;13479;49.044;8.716;2023-04-07T08:51:29;98972.63;;;35.89;16.78
25610;BME280;13479;49.044;8.716;2023-04-07T08:54:11;98972.94;;;36.07;17.39
25610;BME280;13479;49.044;8.716;2023-04-07T08:56:37;98979.47;;;36.11;16.88
25610;BME280;13479;49.044;8.716;2023-04-07T08:59:12;98969.34;;;34.91;17.94
25610;BME280;13479;49.044;8.716;2023-04-07T09:01:38;98980.09;;;32.64;19.17
25610;BME280;13479;49.044;8.716;2023-04-07T09:04:05;98973.13;;;31.02;21.13
25610;BME280;13479;49.044;8.716;2023-04-07T09:06:32;98958.41;;;31.18;21.24
25610;BME280;13479;49.044;8.716;2023-04-07T09:09:01;98960.16;;;29.36;22.63
25610;BME280;13479;49.044;8.716;2023-04-07T09:11:27;98955.31;;;27.35;24.18
25610;BME280;13479;49.044;8.716;2023-04-07T09:13:53;98951.59;;;25.88;25.87
25610;BME280;13479;49.044;8.716;2023-04-07T09:16:19;98954.97;;;24.80;27.47
25610;BME280;13479;49.044;8.716;2023-04-07T09:18:45;98953.47;;;23.96;28.30
25610;BME280;13479;49.044;8.716;2023-04-07T09:21:10;98958.84;;;23.46;29.23
25610;BME280;13479;49.044;8.716;2023-04-07T09:23:37;98947.44;;;24.82;27.99
25610;BME280;13479;49.044;8.716;2023-04-07T09:26:21;98934.22;;;26.01;27.80
25610;BME280;13479;49.044;8.716;2023-04-07T09:28:56;98921.03;;;27.68;25.73
25610;BME280;13479;49.044;8.716;2023-04-07T09:31:22;98918.59;;;27.25;25.67
25610;BME280;13479;49.044;8.716;2023-04-07T09:33:50;98914.25;;;26.31;26.65
25610;BME280;13479;49.044;8.716;2023-04-07T09:36:16;98909.84;;;25.28;27.69
25610;BME280;13479;49.044;8.716;2023-04-07T09:38:43;98906.31;;;25.27;27.47
25610;BME280;13479;49.044;8.716;2023-04-07T09:41:15;98907.16;;;24.23;29.12
25610;BME280;13479;49.044;8.716;2023-04-07T09:43:43;98918.56;;;23.24;30.65
25610;BME280;13479;49.044;8.716;2023-04-07T09:46:16;98922.06;;;23.82;30.76
25610;BME280;13479;49.044;8.716;2023-04-07T09:48:44;98911.16;;;24.20;30.10
25610;BME280;13479;49.044;8.716;2023-04-07T09:51:16;98906.03;;;24.87;29.59
25610;BME280;13479;49.044;8.716;2023-04-07T09:56:09;98910.59;;;27.19;26.22
25610;BME280;13479;49.044;8.716;2023-04-07T09:58:37;98906.78;;;28.00;24.86
25610;BME280;13479;49.044;8.716;2023-04-07T10:01:03;98911.66;;;28.54;24.31
25610;BME280;13479;49.044;8.716;2023-04-07T10:03:29;98913.75;;;28.91;23.95
25610;BME280;13479;49.044;8.716;2023-04-07T10:05:59;98925.47;;;28.87;23.79
25610;BME280;13479;49.044;8.716;2023-04-07T10:08:25;98931.84;;;27.80;24.15
25610;BME280;13479;49.044;8.716;2023-04-07T10:10:50;98933.13;;;26.61;25.59
25610;BME280;13479;49.044;8.716;2023-04-07T10:13:17;98929.59;;;25.89;26.31
25610;BME280;13479;49.044;8.716;2023-04-07T10:15:42;98924.75;;;24.76;27.58
25610;BME280;13479;49.044;8.716;2023-04-07T10:18:07;98924.19;;;23.80;28.43
25610;BME280;13479;49.044;8.716;2023-04-07T10:20:33;98935.41;;;23.26;29.55
25610;BME280;13479;49.044;8.716;2023-04-07T10:23:12;98918.19;;;22.68;30.52
25610;BME280;13479;49.044;8.716;2023-04-07T10:25:41;98910.59;;;21.98;31.40
25610;BME280;13479;49.044;8.716;2023-04-07T10:28:08;98909.97;;;21.55;32.05
25610;BME280;13479;49.044;8.716;2023-04-07T10:30:35;98904.94;;;21.39;32.11
25610;BME280;13479;49.044;8.716;2023-04-07T10:33:01;98900.34;;;21.19;32.80
25610;BME280;13479;49.044;8.716;2023-04-07T10:35:26;98906.88;;;20.76;34.37
25610;BME280;13479;49.044;8.716;2023-04-07T10:38:12;98918.16;;;20.23;35.43
25610;BME280;13479;49.044;8.716;2023-04-07T10:40:39;98930.25;;;19.77;36.84
25610;BME280;13479;49.044;8.716;2023-04-07T10:43:07;98940.13;;;19.26;38.80
25610;BME280;13479;49.044;8.716;2023-04-07T10:48:14;98967.00;;;18.30;41.40
25610;BME280;13479;49.044;8.716;2023-04-07T10:50:39;98965.97;;;17.54;42.51
25610;BME280;13479;49.044;8.716;2023-04-07T10:53:11;98973.19;;;17.54;42.49
25610;BME280;13479;49.044;8.716;2023-04-07T10:55:41;98972.81;;;17.34;43.27
25610;BME280;13479;49.044;8.716;2023-04-07T10:58:21;98972.69;;;17.27;44.08
25610;BME280;13479;49.044;8.716;2023-04-07T11:03:21;98946.47;;;17.06;43.24
25610;BME280;13479;49.044;8.716;2023-04-07T11:05:47;98932.47;;;16.87;43.13
25610;BME280;13479;49.044;8.716;2023-04-07T11:08:12;98927.16;;;16.79;43.17
25610;BME280;13479;49.044;8.716;2023-04-07T11:10:37;98916.78;;;16.76;43.87
25610;BME280;13479;49.044;8.716;2023-04-07T11:13:07;98911.75;;;16.73;44.03
25610;BME280;13479;49.044;8.716;2023-04-07T11:15:34;98902.53;;;16.75;43.80
25610;BME280;13479;49.044;8.716;2023-04-07T11:20:52;98886.06;;;16.87;43.42
25610;BME280;13479;49.044;8.716;2023-04-07T11:23:20;98883.50;;;17.02;43.65
25610;BME280;13479;49.044;8.716;2023-04-07T11:25:47;98885.41;;;17.16;43.44
25610;BME280;13479;49.044;8.716;2023-04-07T11:28:13;98882.34;;;17.19;43.22
25610;BME280;13479;49.044;8.716;2023-04-07T11:30:45;98881.34;;;17.20;43.59
25610;BME280;13479;49.044;8.716;2023-04-07T11:33:19;98880.66;;;17.26;43.33
25610;BME280;13479;49.044;8.716;2023-04-07T11:36:01;98873.88;;;17.31;43.48
25610;BME280;13479;49.044;8.716;2023-04-07T11:38:44;98884.22;;;17.19;44.19
25610;BME280;13479;49.044;8.716;2023-04-07T11:41:13;98890.41;;;17.19;44.26
25610;BME280;13479;49.044;8.716;2023-04-07T11:43:38;98881.19;;;17.22;43.55
25610;BME280;13479;49.044;8.716;2023-04-07T11:48:33;98880.94;;;17.32;43.21
25610;BME280;13479;49.044;8.716;2023-04-07T11:50:59;98889.69;;;17.49;42.19
25610;BME280;13479;49.044;8.716;2023-04-07T11:53:29;98898.25;;;17.67;41.64
25610;BME280;13479;49.044;8.716;2023-04-07T11:56:05;98909.19;;;17.81;40.71
25610;BME280;13479;49.044;8.716;2023-04-07T11:58:31;98908.84;;;17.84;40.03
25610;BME280;13479;49.044;8.716;2023-04-07T12:01:02;98910.72;;;17.83;40.22
25610;BME280;13479;49.044;8.716;2023-04-07T12:03:31;98920.03;;;18.26;39.37
25610;BME280;13479;49.044;8.716;2023-04-07T12:05:57;98921.44;;;18.51;38.86
25610;BME280;13479;49.044;8.716;2023-04-07T12:08:38;98934.84;;;18.96;38.40
25610;BME280;13479;49.044;8.716;2023-04-07T12:11:04;98918.22;;;19.29;36.87
25610;BME280;13479;49.044;8.716;2023-04-07T12:13:30;98925.41;;;19.44;36.72
25610;BME280;13479;49.044;8.716;2023-04-07T12:15:58;98929.94;;;19.43;36.59
25610;BME280;13479;49.044;8.716;2023-04-07T12:18:23;98941.34;;;19.67;36.49
25610;BME280;13479;49.044;8.716;2023-04-07T12:20:49;98938.41;;;19.62;36.02
25610;BME280;13479;49.044;8.716;2023-04-07T12:23:14;98939.31;;;19.69;36.05
25610;BME280;13479;49.044;8.716;2023-04-07T12:25:40;98955.66;;;19.89;35.87
25610;BME280;13479;49.044;8.716;2023-04-07T12:28:05;98946.00;;;19.52;35.45
25610;BME280;13479;49.044;8.716;2023-04-07T12:30:30;98951.72;;;18.90;37.71
25610;BME280;13479;49.044;8.716;2023-04-07T12:32:56;98944.28;;;18.02;39.92
25610;BME280;13479;49.044;8.716;2023-04-07T12:35:21;98934.28;;;17.26;42.03
25610;BME280;13479;49.044;8.716;2023-04-07T12:37:46;98943.91;;;16.73;43.62
25610;BME280;13479;49.044;8.716;2023-04-07T12:40:12;98939.59;;;16.15;44.48
25610;BME280;13479;49.044;8.716;2023-04-07T12:42:38;98942.44;;;15.81;45.99
25610;BME280;13479;49.044;8.716;2023-04-07T12:45:03;98943.78;;;15.60;46.66
25610;BME280;13479;49.044;8.716;2023-04-07T12:47:29;98947.78;;;15.39;46.96
25610;BME280;13479;49.044;8.716;2023-04-07T12:49:55;98931.03;;;15.29;47.71
25610;BME280;13479;49.044;8.716;2023-04-07T12:52:20;98934.19;;;15.08;48.50
25610;BME280;13479;49.044;8.716;2023-04-07T12:54:46;98933.47;;;14.97;49.48
25610;BME280;13479;49.044;8.716;2023-04-07T12:57:11;98933.47;;;14.89;50.56
25610;BME280;13479;49.044;8.716;2023-04-07T12:59:37;98939.28;;;14.85;50.76
25610;BME280;13479;49.044;8.716;2023-04-07T13:02:02;98937.31;;;14.95;51.64
25610;BME280;13479;49.044;8.716;2023-04-07T13:04:27;98934.50;;;15.05;49.75
25610;BME280;13479;49.044;8.716;2023-04-07T13:06:54;98915.94;;;15.03;49.94
25610;BME280;13479;49.044;8.716;2023-04-07T13:09:20;98934.34;;;14.98;48.11
25610;BME280;13479;49.044;8.716;2023-04-07T13:11:45;98944.03;;;15.07;47.65
25610;BME280;13479;49.044;8.716;2023-04-07T13:14:10;98937.19;;;14.96;47.92
25610;BME280;13479;49.044;8.716;2023-04-07T13:16:36;98932.78;;;14.87;47.71
25610;BME280;13479;49.044;8.716;2023-04-07T13:19:01;98921.06;;;14.80;49.47
25610;BME280;13479;49.044;8.716;2023-04-07T13:21:28;98917.22;;;14.82;49.50
25610;BME280;13479;49.044;8.716;2023-04-07T13:23:53;98913.06;;;14.88;48.99
25610;BME280;13479;49.044;8.716;2023-04-07T13:26:18;98914.25;;;14.94;49.55
25610;BME280;13479;49.044;8.716;2023-04-07T13:28:43;98922.78;;;14.97;48.26
25610;BME280;13479;49.044;8.716;2023-04-07T13:31:10;98907.59;;;14.98;48.12
25610;BME280;13479;49.044;8.716;2023-04-07T13:33:37;98915.31;;;15.09;48.00
25610;BME280;13479;49.044;8.716;2023-04-07T13:36:02;98915.63;;;15.06;47.63
25610;BME280;13479;49.044;8.716;2023-04-07T13:38:27;98936.88;;;15.16;46.81
25610;BME280;13479;49.044;8.716;2023-04-07T13:40:53;98924.34;;;15.17;47.25
25610;BME280;13479;49.044;8.716;2023-04-07T13:43:18;98937.75;;;15.33;44.96
25610;BME280;13479;49.044;8.716;2023-04-07T13:45:44;98942.09;;;15.34;45.04
25610;BME280;13479;49.044;8.716;2023-04-07T13:48:10;98935.75;;;15.35;45.67
25610;BME280;13479;49.044;8.716;2023-04-07T13:50:36;98950.81;;;15.44;43.93
25610;BME280;13479;49.044;8.716;2023-04-07T13:53:01;98942.78;;;15.36;44.08
25610;BME280;13479;49.044;8.716;2023-04-07T13:55:26;98944.41;;;15.37;44.34
25610;BME280;13479;49.044;8.716;2023-04-07T13:57:52;98948.13;;;15.36;44.96
25610;BME280;13479;49.044;8.716;2023-04-07T14:00:17;98941.72;;;15.21;45.07
25610;BME280;13479;49.044;8.716;2023-04-07T14:02:43;98927.72;;;15.35;46.33
25610;BME280;13479;49.044;8.716;2023-04-07T14:05:10;98921.69;;;15.41;46.04
25610;BME280;13479;49.044;8.716;2023-04-07T14:07:35;98921.19;;;15.46;45.79
25610;BME280;13479;49.044;8.716;2023-04-07T14:10:00;98917.34;;;15.40;45.85
25610;BME280;13479;49.044;8.716;2023-04-07T14:12:25;98900.13;;;15.59;46.93
25610;BME280;13479;49.044;8.716;2023-04-07T14:14:51;98898.94;;;15.62;47.56
25610;BME280;13479;49.044;8.716;2023-04-07T14:17:18;98902.63;;;15.61;48.37
25610;BME280;13479;49.044;8.716;2023-04-07T14:19:44;98901.81;;;15.60;47.85
25610;BME280;13479;49.044;8.716;2023-04-07T14:22:09;98923.72;;;15.64;45.69
25610;BME280;13479;49.044;8.716;2023-04-07T14:24:35;98938.09;;;15.63;44.84
25610;BME280;13479;49.044;8.716;2023-04-07T14:27:00;98946.63;;;15.58;45.11
25610;BME280;13479;49.044;8.716;2023-04-07T14:29:28;98944.47;;;15.70;45.67
25610;BME280;13479;49.044;8.716;2023-04-07T14:31:53;98959.84;;;15.77;45.06
25610;BME280;13479;49.044;8.716;2023-04-07T14:34:18;98956.66;;;15.81;43.95
25610;BME280;13479;49.044;8.716;2023-04-07T14:36:54;98954.50;;;15.77;44.80
25610;BME280;13479;49.044;8.716;2023-04-07T14:39:21;98952.31;;;15.72;45.19
25610;BME280;13479;49.044;8.716;2023-04-07T14:41:46;98943.94;;;15.67;45.26
25610;BME280;13479;49.044;8.716;2023-04-07T14:44:12;98946.31;;;15.62;45.72
25610;BME280;13479;49.044;8.716;2023-04-07T14:46:38;98946.47;;;15.68;44.77
25610;BME280;13479;49.044;8.716;2023-04-07T14:49:03;98952.31;;;15.64;44.87
25610;BME280;13479;49.044;8.716;2023-04-07T14:51:28;98950.97;;;15.59;45.05
25610;BME280;13479;49.044;8.716;2023-04-07T14:53:54;98940.59;;;15.56;45.34
25610;BME280;13479;49.044;8.716;2023-04-07T14:56:22;98929.06;;;15.56;45.49
25610;BME280;13479;49.044;8.716;2023-04-07T14:58:47;98913.34;;;15.78;46.11
25610;BME280;13479;49.044;8.716;2023-04-07T15:01:12;98912.00;;;15.73;45.89
25610;BME280;13479;49.044;8.716;2023-04-07T15:03:38;98898.28;;;15.93;46.41
25610;BME280;13479;49.044;8.716;2023-04-07T15:06:10;98923.88;;;16.04;45.61
25610;BME280;13479;49.044;8.716;2023-04-07T15:08:37;98930.72;;;16.15;46.18
25610;BME280;13479;49.044;8.716;2023-04-07T15:11:03;98922.34;;;16.10;46.79
25610;BME280;13479;49.044;8.716;2023-04-07T15:13:29;98917.88;;;15.94;46.15
25610;BME280;13479;49.044;8.716;2023-04-07T15:15:55;98922.38;;;15.60;47.03
25610;BME280;13479;49.044;8.716;2023-04-07T15:18:20;98918.34;;;15.31;47.64
25610;BME280;13479;49.044;8.716;2023-04-07T15:20:45;98920.00;;;15.16;48.25
25610;BME280;13479;49.044;8.716;2023-04-07T15:23:10;98920.16;;;15.06;48.61
25610;BME280;13479;49.044;8.716;2023-04-07T15:25:38;98919.34;;;15.13;48.80
25610;BME280;13479;49.044;8.716;2023-04-07T15:28:04;98922.97;;;15.04;48.40
25610;BME280;13479;49.044;8.716;2023-04-07T15:30:29;98918.28;;;14.98;48.44
25610;BME280;13479;49.044;8.716;2023-04-07T15:33:01;98907.59;;;14.98;49.42
25610;BME280;13479;49.044;8.716;2023-04-07T15:35:28;98914.94;;;15.04;49.77
25610;BME280;13479;49.044;8.716;2023-04-07T15:37:53;98914.13;;;14.95;49.82
25610;BME280;13479;49.044;8.716;2023-04-07T15:40:19;98911.44;;;14.95;49.78
25610;BME280;13479;49.044;8.716;2023-04-07T15:42:44;98911.63;;;15.02;50.25
25610;BME280;13479;49.044;8.716;2023-04-07T15:45:10;98916.44;;;14.90;50.48
25610;BME280;13479;49.044;8.716;2023-04-07T15:47:35;98913.94;;;14.89;51.29
25610;BME280;13479;49.044;8.716;2023-04-07T15:50:01;98919.59;;;14.94;51.16
25610;BME280;13479;49.044;8.716;2023-04-07T15:52:26;98923.31;;;15.01;51.19
25610;BME280;13479;49.044;8.716;2023-04-07T15:54:51;98924.47;;;14.98;51.38
25610;BME280;13479;49.044;8.716;2023-04-07T15:57:17;98917.88;;;14.68;52.14
25610;BME280;13479;49.044;8.716;2023-04-07T15:59:42;98931.50;;;14.65;53.36
25610;BME280;13479;49.044;8.716;2023-04-07T16:02:07;98951.28;;;14.72;51.36
25610;BME280;13479;49.044;8.716;2023-04-07T16:04:33;98940.09;;;14.77;51.62
25610;BME280;13479;49.044;8.716;2023-04-07T16:06:58;98947.00;;;14.96;51.22
25610;BME280;13479;49.044;8.716;2023-04-07T16:09:23;98948.22;;;15.10;51.23
25610;BME280;13479;49.044;8.716;2023-04-07T16:11:49;98948.44;;;15.33;50.70
25610;BME280;13479;49.044;8.716;2023-04-07T16:14:15;98963.53;;;15.59;50.59
25610;BME280;13479;49.044;8.716;2023-04-07T16:16:40;98968.38;;;15.80;49.87
25610;BME280;13479;49.044;8.716;2023-04-07T16:19:06;98984.28;;;15.82;48.72
25610;BME280;13479;49.044;8.716;2023-04-07T16:21:31;99008.03;;;15.77;48.43
25610;BME280;13479;49.044;8.716;2023-04-07T16:23:56;99003.00;;;15.73;48.53
25610;BME280;13479;49.044;8.716;2023-04-07T16:26:21;99010.53;;;15.62;47.62
25610;BME280;13479;49.044;8.716;2023-04-07T16:28:47;99015.47;;;15.32;48.09
25610;BME280;13479;49.044;8.716;2023-04-07T16:31:13;98995.50;;;15.01;48.95
25610;BME280;13479;49.044;8.716;2023-04-07T16:33:38;98989.19;;;14.76;49.78
25610;BME280;13479;49.044;8.716;2023-04-07T16:36:05;98975.50;;;14.71;50.24
25610;BME280;13479;49.044;8.716;2023-04-07T16:38:30;98974.03;;;14.50;51.07
25610;BME280;13479;49.044;8.716;2023-04-07T16:40:56;98965.81;;;14.43;51.04
25610;BME280;13479;49.044;8.716;2023-04-07T16:43:21;98959.28;;;14.38;51.34
25610;BME280;13479;49.044;8.716;2023-04-07T16:45:50;98950.81;;;14.16;52.12
25610;BME280;13479;49.044;8.716;2023-04-07T16:48:16;98961.69;;;14.23;51.92
25610;BME280;13479;49.044;8.716;2023-04-07T16:50:42;98970.06;;;14.28;51.63
25610;BME280;13479;49.044;8.716;2023-04-07T16:53:07;98965.56;;;14.28;51.88
25610;BME280;13479;49.044;8.716;2023-04-07T16:55:36;98963.72;;;14.29;51.56
25610;BME280;13479;49.044;8.716;2023-04-07T16:58:01;98968.72;;;14.24;51.76
25610;BME280;13479;49.044;8.716;2023-04-07T17:00:27;98966.59;;;14.09;52.66
25610;BME280;13479;49.044;8.716;2023-04-07T17:02:52;98976.06;;;14.30;52.94
25610;BME280;13479;49.044;8.716;2023-04-07T17:05:17;98976.22;;;14.55;52.49
25610;BME280;13479;49.044;8.716;2023-04-07T17:07:43;98988.94;;;14.61;52.08
25610;BME280;13479;49.044;8.716;2023-04-07T17:10:08;98988.38;;;14.49;52.84
25610;BME280;13479;49.044;8.716;2023-04-07T17:12:34;98983.13;;;14.39;52.45